Private Wetterstation Sandau
Wetterdaten: Samstag, 24.03.2012
Datum Zeit Temp. A. Feuchte A. Luftdruck Regen Wind Richtung Richtung Taupunkt Windchill
24.03.2012 00:02 9,2 C 79 % 1027,9 hPa 0,0 l/m 0,0 km/h (0 Bft) NW 315 5,8 C 9,2 C
24.03.2012 00:07 9,1 C 80 % 1027,9 hPa 0,0 l/m 0,0 km/h (0 Bft) NW 315 5,8 C 9,1 C
24.03.2012 00:12 9,1 C 80 % 1027,9 hPa 0,0 l/m 0,0 km/h (0 Bft) W 270 5,8 C 9,1 C
24.03.2012 00:17 9,1 C 80 % 1027,9 hPa 0,0 l/m 0,0 km/h (0 Bft) W 270 5,8 C 9,1 C
24.03.2012 00:22 8,9 C 80 % 1028,0 hPa 0,0 l/m 0,0 km/h (0 Bft) W 270 5,6 C 8,9 C
24.03.2012 00:27 8,9 C 80 % 1027,9 hPa 0,0 l/m 0,0 km/h (0 Bft) W 270 5,6 C 8,9 C
24.03.2012 00:32 8,8 C 80 % 1028,0 hPa 0,0 l/m 0,0 km/h (0 Bft) NW 315 5,5 C 8,8 C
24.03.2012 00:37 8,8 C 80 % 1028,0 hPa 0,0 l/m 0,0 km/h (0 Bft) NW 315 5,5 C 8,8 C
24.03.2012 00:42 8,6 C 80 % 1028,0 hPa 0,0 l/m 0,0 km/h (0 Bft) NW 315 5,3 C 8,6 C
24.03.2012 00:47 8,6 C 80 % 1028,0 hPa 0,0 l/m 0,0 km/h (0 Bft) NW 315 5,3 C 8,6 C
24.03.2012 00:52 8,5 C 80 % 1028,0 hPa 0,0 l/m 0,0 km/h (0 Bft) NW 315 5,3 C 8,5 C
24.03.2012 00:57 8,4 C 80 % 1028,0 hPa 0,0 l/m 0,0 km/h (0 Bft) NW 315 5,2 C 8,4 C
24.03.2012 01:02 8,3 C 79 % 1028,1 hPa 0,0 l/m 0,0 km/h (0 Bft) NW 315 4,9 C 8,3 C
24.03.2012 01:07 8,3 C 79 % 1027,9 hPa 0,0 l/m 0,0 km/h (0 Bft) W 270 4,9 C 8,3 C
24.03.2012 01:12 8,3 C 79 % 1028,0 hPa 0,0 l/m 0,0 km/h (0 Bft) W 270 4,9 C 8,3 C
24.03.2012 01:17 8,2 C 79 % 1027,9 hPa 0,0 l/m 0,0 km/h (0 Bft) W-SW 247 4,8 C 8,2 C
24.03.2012 01:22 8,2 C 79 % 1027,8 hPa 0,0 l/m 0,0 km/h (0 Bft) W-SW 247 4,8 C 8,2 C
24.03.2012 01:27 8,2 C 79 % 1027,9 hPa 0,0 l/m 0,0 km/h (0 Bft) W-SW 247 4,8 C 8,2 C
24.03.2012 01:32 8,2 C 79 % 1027,8 hPa 0,0 l/m 0,0 km/h (0 Bft) W-SW 247 4,8 C 8,2 C
24.03.2012 01:37 8,1 C 79 % 1027,9 hPa 0,0 l/m 0,0 km/h (0 Bft) W-SW 247 4,7 C 8,1 C
24.03.2012 01:42 8,1 C 79 % 1028,0 hPa 0,0 l/m 0,0 km/h (0 Bft) W-SW 247 4,7 C 8,1 C
24.03.2012 01:47 7,9 C 79 % 1027,8 hPa 0,0 l/m 0,0 km/h (0 Bft) W-SW 247 4,5 C 7,9 C
24.03.2012 01:52 7,9 C 79 % 1027,8 hPa 0,0 l/m 0,0 km/h (0 Bft) W-SW 247 4,5 C 7,9 C
24.03.2012 01:57 7,8 C 80 % 1028,0 hPa 0,0 l/m 0,0 km/h (0 Bft) W-SW 247 4,6 C 7,8 C
24.03.2012 02:02 7,6 C 79 % 1027,8 hPa 0,0 l/m 0,0 km/h (0 Bft) W-SW 247 4,2 C 7,6 C
24.03.2012 02:07 7,5 C 80 % 1027,9 hPa 0,0 l/m 0,0 km/h (0 Bft) W-SW 247 4,3 C 7,5 C
24.03.2012 02:12 7,4 C 80 % 1028,0 hPa 0,0 l/m 0,0 km/h (0 Bft) W-SW 247 4,2 C 7,4 C
24.03.2012 02:17 7,3 C 80 % 1027,8 hPa 0,0 l/m 0,0 km/h (0 Bft) NW 315 4,1 C 7,3 C
24.03.2012 02:22 7,2 C 80 % 1027,9 hPa 0,0 l/m 0,0 km/h (0 Bft) NW 315 4,0 C 7,2 C
24.03.2012 02:27 6,9 C 80 % 1027,9 hPa 0,0 l/m 0,0 km/h (0 Bft) NW 315 3,7 C 6,9 C
24.03.2012 02:32 6,9 C 80 % 1027,8 hPa 0,0 l/m 0,0 km/h (0 Bft) NW 315 3,7 C 6,9 C
24.03.2012 02:37 6,9 C 80 % 1027,9 hPa 0,0 l/m 0,0 km/h (0 Bft) NW 315 3,7 C 6,9 C
24.03.2012 02:42 6,8 C 80 % 1027,9 hPa 0,0 l/m 0,0 km/h (0 Bft) NW 315 3,6 C 6,8 C
24.03.2012 02:47 6,8 C 81 % 1027,9 hPa 0,0 l/m 0,0 km/h (0 Bft) NW 315 3,8 C 6,8 C
24.03.2012 02:52 6,7 C 81 % 1027,7 hPa 0,0 l/m 0,0 km/h (0 Bft) NW 315 3,7 C 6,7 C
24.03.2012 02:57 6,8 C 81 % 1027,8 hPa 0,0 l/m 0,0 km/h (0 Bft) N 360 3,8 C 6,8 C
24.03.2012 03:02 6,7 C 81 % 1027,9 hPa 0,0 l/m 0,0 km/h (0 Bft) N 360 3,7 C 6,7 C
24.03.2012 03:07 6,8 C 81 % 1027,9 hPa 0,0 l/m 0,0 km/h (0 Bft) N 360 3,8 C 6,8 C
24.03.2012 03:12 6,7 C 80 % 1028,0 hPa 0,0 l/m 1,8 km/h (1 Bft) N 360 3,5 C 6,7 C
24.03.2012 03:17 6,5 C 81 % 1027,9 hPa 0,0 l/m 0,0 km/h (0 Bft) N 360 3,5 C 6,5 C
24.03.2012 03:22 6,4 C 81 % 1028,0 hPa 0,0 l/m 0,0 km/h (0 Bft) N 360 3,4 C 6,4 C
24.03.2012 03:27 6,3 C 81 % 1028,1 hPa 0,0 l/m 0,0 km/h (0 Bft) N 360 3,3 C 6,3 C
24.03.2012 03:32 6,3 C 81 % 1028,1 hPa 0,0 l/m 0,0 km/h (0 Bft) N-NO 22 3,3 C 6,3 C
24.03.2012 03:37 6,3 C 81 % 1028,2 hPa 0,0 l/m 0,0 km/h (0 Bft) N-NO 22 3,3 C 6,3 C
24.03.2012 03:42 6,3 C 81 % 1027,9 hPa 0,0 l/m 0,0 km/h (0 Bft) O-SO 112 3,3 C 6,3 C
24.03.2012 03:47 6,3 C 81 % 1027,9 hPa 0,0 l/m 4,0 km/h (1 Bft) O 90 3,3 C 6,3 C
24.03.2012 03:52 6,4 C 81 % 1027,9 hPa 0,0 l/m 0,0 km/h (0 Bft) O-SO 112 3,4 C 6,4 C
24.03.2012 03:57 6,4 C 82 % 1028,0 hPa 0,0 l/m 0,0 km/h (0 Bft) O-SO 112 3,6 C 6,4 C
24.03.2012 04:02 6,4 C 82 % 1028,0 hPa 0,0 l/m 2,2 km/h (1 Bft) O 90 3,6 C 6,4 C
24.03.2012 04:07 6,4 C 82 % 1028,0 hPa 0,0 l/m 1,4 km/h (1 Bft) O 90 3,6 C 6,4 C
24.03.2012 04:12 6,4 C 82 % 1028,0 hPa 0,0 l/m 0,0 km/h (0 Bft) O 90 3,6 C 6,4 C
24.03.2012 04:17 6,4 C 82 % 1028,0 hPa 0,0 l/m 0,0 km/h (0 Bft) O 90 3,6 C 6,4 C
24.03.2012 04:22 6,4 C 81 % 1028,1 hPa 0,0 l/m 0,0 km/h (0 Bft) O 90 3,4 C 6,4 C
24.03.2012 04:27 6,3 C 81 % 1028,0 hPa 0,0 l/m 0,0 km/h (0 Bft) O 90 3,3 C 6,3 C
24.03.2012 04:32 6,2 C 82 % 1028,0 hPa 0,0 l/m 0,0 km/h (0 Bft) O 90 3,4 C 6,2 C
24.03.2012 04:37 6,1 C 82 % 1027,9 hPa 0,0 l/m 1,1 km/h (1 Bft) SO 135 3,3 C 6,1 C
24.03.2012 04:42 6,1 C 82 % 1027,9 hPa 0,0 l/m 1,1 km/h (1 Bft) O-SO 112 3,3 C 6,1 C
24.03.2012 04:47 6,1 C 82 % 1027,9 hPa 0,0 l/m 0,0 km/h (0 Bft) O-SO 112 3,3 C 6,1 C
24.03.2012 04:52 6,1 C 82 % 1027,8 hPa 0,0 l/m 2,5 km/h (1 Bft) O-SO 112 3,3 C 6,1 C
24.03.2012 04:57 6,1 C 82 % 1027,9 hPa 0,0 l/m 1,1 km/h (1 Bft) O 90 3,3 C 6,1 C
24.03.2012 05:02 6,1 C 82 % 1027,8 hPa 0,0 l/m 0,0 km/h (0 Bft) O-SO 112 3,3 C 6,1 C
24.03.2012 05:07 6,1 C 82 % 1027,8 hPa 0,0 l/m 1,8 km/h (1 Bft) O-SO 112 3,3 C 6,1 C
24.03.2012 05:12 6,1 C 82 % 1027,7 hPa 0,0 l/m 0,0 km/h (0 Bft) O-SO 112 3,3 C 6,1 C
24.03.2012 05:17 6,0 C 82 % 1027,8 hPa 0,0 l/m 0,0 km/h (0 Bft) O-SO 112 3,2 C 6,0 C
24.03.2012 05:22 5,9 C 82 % 1027,9 hPa 0,0 l/m 0,0 km/h (0 Bft) O-SO 112 3,1 C 5,9 C
24.03.2012 05:27 5,9 C 82 % 1027,8 hPa 0,0 l/m 0,0 km/h (0 Bft) O-SO 112 3,1 C 5,9 C
24.03.2012 05:32 5,9 C 82 % 1027,7 hPa 0,0 l/m 0,0 km/h (0 Bft) SO 135 3,1 C 5,9 C
24.03.2012 05:37 5,8 C 82 % 1027,7 hPa 0,0 l/m 1,4 km/h (1 Bft) O-SO 112 3,0 C 5,8 C
24.03.2012 05:42 5,8 C 83 % 1027,7 hPa 0,0 l/m 1,4 km/h (1 Bft) O-SO 112 3,1 C 5,8 C
24.03.2012 05:47 5,8 C 83 % 1027,7 hPa 0,0 l/m 0,0 km/h (0 Bft) SO 135 3,1 C 5,8 C
24.03.2012 05:52 5,6 C 83 % 1027,6 hPa 0,0 l/m 1,8 km/h (1 Bft) O-SO 112 2,9 C 5,6 C
24.03.2012 05:57 5,6 C 83 % 1027,8 hPa 0,0 l/m 1,8 km/h (1 Bft) SO 135 2,9 C 5,6 C
24.03.2012 06:02 5,6 C 83 % 1027,9 hPa 0,0 l/m 0,0 km/h (0 Bft) SO 135 2,9 C 5,6 C
24.03.2012 06:07 5,6 C 83 % 1027,7 hPa 0,0 l/m 0,0 km/h (0 Bft) SO 135 2,9 C 5,6 C
24.03.2012 06:12 5,6 C 83 % 1027,7 hPa 0,0 l/m 0,0 km/h (0 Bft) SO 135 2,9 C 5,6 C
24.03.2012 06:17 5,6 C 83 % 1027,7 hPa 0,0 l/m 0,0 km/h (0 Bft) SO 135 2,9 C 5,6 C
24.03.2012 06:22 5,6 C 83 % 1027,8 hPa 0,0 l/m 0,0 km/h (0 Bft) SO 135 2,9 C 5,6 C
24.03.2012 06:27 5,6 C 83 % 1027,9 hPa 0,0 l/m 0,0 km/h (0 Bft) SO 135 2,9 C 5,6 C
24.03.2012 06:32 5,6 C 83 % 1027,7 hPa 0,0 l/m 0,0 km/h (0 Bft) SO 135 2,9 C 5,6 C
24.03.2012 06:37 5,6 C 83 % 1027,7 hPa 0,0 l/m 2,9 km/h (1 Bft) O 90 2,9 C 5,6 C
24.03.2012 06:42 5,8 C 84 % 1028,0 hPa 0,0 l/m 0,0 km/h (0 Bft) O 90 3,3 C 5,8 C
24.03.2012 06:47 5,8 C 84 % 1028,0 hPa 0,0 l/m 0,0 km/h (0 Bft) NW 315 3,3 C 5,8 C
24.03.2012 06:52 5,8 C 84 % 1028,1 hPa 0,0 l/m 2,9 km/h (1 Bft) NW 315 3,3 C 5,8 C
24.03.2012 06:57 5,9 C 84 % 1027,9 hPa 0,0 l/m 0,0 km/h (0 Bft) NW 315 3,4 C 5,9 C
24.03.2012 07:02 5,9 C 84 % 1028,0 hPa 0,0 l/m 0,0 km/h (0 Bft) NW 315 3,4 C 5,9 C
24.03.2012 07:07 6,1 C 84 % 1028,0 hPa 0,0 l/m 0,0 km/h (0 Bft) NW 315 3,6 C 6,1 C
24.03.2012 07:12 6,3 C 84 % 1028,1 hPa 0,0 l/m 0,0 km/h (0 Bft) NW 315 3,8 C 6,3 C
24.03.2012 07:17 6,4 C 84 % 1028,1 hPa 0,0 l/m 2,5 km/h (1 Bft) NW 315 3,9 C 6,4 C
24.03.2012 07:22 6,4 C 84 % 1028,1 hPa 0,0 l/m 0,0 km/h (0 Bft) NW 315 3,9 C 6,4 C
24.03.2012 07:27 6,4 C 84 % 1028,1 hPa 0,0 l/m 0,0 km/h (0 Bft) NW 315 3,9 C 6,4 C
24.03.2012 07:32 6,5 C 85 % 1028,3 hPa 0,0 l/m 0,0 km/h (0 Bft) NW 315 4,2 C 6,5 C
24.03.2012 07:37 6,6 C 85 % 1028,1 hPa 0,0 l/m 0,0 km/h (0 Bft) W 270 4,3 C 6,6 C
24.03.2012 07:42 6,8 C 84 % 1028,0 hPa 0,0 l/m 2,5 km/h (1 Bft) W-SW 247 4,3 C 6,8 C
24.03.2012 07:47 6,9 C 84 % 1028,0 hPa 0,0 l/m 1,8 km/h (1 Bft) W-NW 292 4,4 C 6,9 C
24.03.2012 07:52 7,0 C 84 % 1028,1 hPa 0,0 l/m 2,9 km/h (1 Bft) W-NW 292 4,5 C 7,0 C
24.03.2012 07:57 7,2 C 84 % 1028,0 hPa 0,0 l/m 2,2 km/h (1 Bft) W-SW 247 4,7 C 7,2 C
24.03.2012 08:02 7,3 C 84 % 1028,0 hPa 0,0 l/m 0,0 km/h (0 Bft) W 270 4,8 C 7,3 C
24.03.2012 08:07 7,5 C 84 % 1027,9 hPa 0,0 l/m 1,4 km/h (1 Bft) W 270 5,0 C 7,5 C
24.03.2012 08:12 7,6 C 84 % 1028,1 hPa 0,0 l/m 2,5 km/h (1 Bft) W-NW 292 5,1 C 7,6 C
24.03.2012 08:17 7,8 C 84 % 1027,9 hPa 0,0 l/m 0,0 km/h (0 Bft) W 270 5,3 C 7,8 C
24.03.2012 08:22 7,9 C 83 % 1028,0 hPa 0,0 l/m 1,8 km/h (1 Bft) W 270 5,2 C 7,9 C
24.03.2012 08:27 8,1 C 83 % 1028,0 hPa 0,0 l/m 2,9 km/h (1 Bft) W-NW 292 5,4 C 8,1 C
24.03.2012 08:32 8,2 C 83 % 1028,0 hPa 0,0 l/m 2,9 km/h (1 Bft) W 270 5,5 C 8,2 C
24.03.2012 08:37 8,4 C 83 % 1028,0 hPa 0,0 l/m 0,0 km/h (0 Bft) W-SW 247 5,7 C 8,4 C
24.03.2012 08:42 8,6 C 83 % 1027,9 hPa 0,0 l/m 2,9 km/h (1 Bft) W-SW 247 5,9 C 8,6 C
24.03.2012 08:47 8,8 C 82 % 1028,0 hPa 0,0 l/m 4,7 km/h (1 Bft) W-SW 247 5,9 C 8,5 C
24.03.2012 08:52 8,9 C 82 % 1028,0 hPa 0,0 l/m 0,0 km/h (0 Bft) W-SW 247 6,0 C 8,9 C
24.03.2012 08:57 9,1 C 82 % 1028,1 hPa 0,0 l/m 2,2 km/h (1 Bft) W 270 6,2 C 9,1 C
24.03.2012 09:02 9,3 C 82 % 1028,1 hPa 0,0 l/m 1,8 km/h (1 Bft) W 270 6,4 C 9,3 C
24.03.2012 09:07 9,5 C 81 % 1028,1 hPa 0,0 l/m 1,8 km/h (1 Bft) W-NW 292 6,4 C 9,5 C
24.03.2012 09:12 9,8 C 81 % 1028,0 hPa 0,0 l/m 1,8 km/h (1 Bft) SW 225 6,7 C 9,8 C
24.03.2012 09:17 9,9 C 81 % 1028,1 hPa 0,0 l/m 2,2 km/h (1 Bft) W-SW 247 6,8 C 9,9 C
24.03.2012 09:22 10,2 C 81 % 1028,2 hPa 0,0 l/m 5,0 km/h (1 Bft) W-SW 247 7,1 C 10,2 C
24.03.2012 09:27 10,4 C 80 % 1028,0 hPa 0,0 l/m 4,7 km/h (1 Bft) W-SW 247 7,1 C 10,4 C
24.03.2012 09:32 10,6 C 79 % 1028,0 hPa 0,0 l/m 1,4 km/h (1 Bft) W-SW 247 7,1 C 10,6 C
24.03.2012 09:37 10,9 C 79 % 1028,1 hPa 0,0 l/m 5,8 km/h (2 Bft) W-NW 292 7,4 C 10,9 C
24.03.2012 09:42 11,1 C 78 % 1028,0 hPa 0,0 l/m 3,6 km/h (1 Bft) W-NW 292 7,4 C 11,1 C
24.03.2012 09:47 11,3 C 78 % 1028,1 hPa 0,0 l/m 4,7 km/h (1 Bft) W-NW 292 7,6 C 11,3 C
24.03.2012 09:52 11,5 C 77 % 1028,0 hPa 0,0 l/m 3,2 km/h (1 Bft) W-NW 292 7,6 C 11,5 C
24.03.2012 09:57 11,8 C 76 % 1027,8 hPa 0,0 l/m 2,5 km/h (1 Bft) W 270 7,7 C 11,8 C
24.03.2012 10:02 11,9 C 76 % 1027,9 hPa 0,0 l/m 4,0 km/h (1 Bft) W 270 7,8 C 11,9 C
24.03.2012 10:07 12,2 C 75 % 1028,1 hPa 0,0 l/m 4,0 km/h (1 Bft) W 270 7,9 C 12,2 C
24.03.2012 10:12 12,4 C 74 % 1028,0 hPa 0,0 l/m 3,6 km/h (1 Bft) W 270 7,9 C 12,4 C
24.03.2012 10:17 12,6 C 73 % 1027,9 hPa 0,0 l/m 4,0 km/h (1 Bft) W-NW 292 7,9 C 12,6 C
24.03.2012 10:22 12,9 C 72 % 1027,9 hPa 0,0 l/m 4,7 km/h (1 Bft) SW 225 8,0 C 12,9 C
24.03.2012 10:27 13,0 C 71 % 1027,9 hPa 0,0 l/m 1,4 km/h (1 Bft) W-NW 292 7,9 C 13,0 C
24.03.2012 10:32 13,3 C 71 % 1027,9 hPa 0,0 l/m 3,2 km/h (1 Bft) W 270 8,2 C 13,3 C
24.03.2012 10:37 13,4 C 70 % 1027,8 hPa 0,0 l/m 4,7 km/h (1 Bft) W-NW 292 8,0 C 13,4 C
24.03.2012 10:42 13,6 C 69 % 1028,0 hPa 0,0 l/m 3,2 km/h (1 Bft) W 270 8,0 C 13,6 C
24.03.2012 10:47 13,8 C 67 % 1027,9 hPa 0,0 l/m 4,7 km/h (1 Bft) W-NW 292 7,8 C 13,8 C
24.03.2012 10:52 13,9 C 67 % 1028,1 hPa 0,0 l/m 5,0 km/h (1 Bft) W 270 7,9 C 13,9 C
24.03.2012 10:57 14,2 C 67 % 1027,9 hPa 0,0 l/m 2,9 km/h (1 Bft) NW 315 8,2 C 14,2 C
24.03.2012 11:02 14,3 C 66 % 1027,9 hPa 0,0 l/m 7,9 km/h (2 Bft) W-NW 292 8,0 C 14,3 C
24.03.2012 11:07 14,5 C 65 % 1027,9 hPa 0,0 l/m 5,0 km/h (1 Bft) W-NW 292 8,0 C 14,5 C
24.03.2012 11:12 14,7 C 64 % 1028,0 hPa 0,0 l/m 5,0 km/h (1 Bft) W 270 8,0 C 14,7 C
24.03.2012 11:17 14,9 C 64 % 1027,8 hPa 0,0 l/m 5,0 km/h (1 Bft) NW 315 8,2 C 14,9 C
24.03.2012 11:22 14,9 C 63 % 1027,7 hPa 0,0 l/m 4,0 km/h (1 Bft) W-SW 247 7,9 C 14,9 C
24.03.2012 11:27 14,9 C 62 % 1027,8 hPa 0,0 l/m 1,8 km/h (1 Bft) W-NW 292 7,7 C 14,9 C
24.03.2012 11:32 15,2 C 62 % 1027,8 hPa 0,0 l/m 2,5 km/h (1 Bft) W 270 8,0 C 15,2 C
24.03.2012 11:37 15,3 C 62 % 1027,8 hPa 0,0 l/m 5,8 km/h (2 Bft) W 270 8,1 C 15,3 C
24.03.2012 11:42 15,5 C 61 % 1027,7 hPa 0,0 l/m 1,4 km/h (1 Bft) W-SW 247 8,0 C 15,5 C
24.03.2012 11:47 15,7 C 61 % 1027,7 hPa 0,0 l/m 4,7 km/h (1 Bft) W 270 8,2 C 15,7 C
24.03.2012 11:52 15,9 C 61 % 1027,7 hPa 0,0 l/m 2,9 km/h (1 Bft) W 270 8,4 C 15,9 C
24.03.2012 11:57 16,1 C 60 % 1027,7 hPa 0,0 l/m 4,0 km/h (1 Bft) W 270 8,3 C 16,1 C
24.03.2012 12:02 16,2 C 60 % 1027,7 hPa 0,0 l/m 4,0 km/h (1 Bft) W-SW 247 8,4 C 16,2 C
24.03.2012 12:07 16,2 C 60 % 1027,6 hPa 0,0 l/m 4,3 km/h (1 Bft) W 270 8,4 C 16,2 C
24.03.2012 12:12 16,3 C 60 % 1027,6 hPa 0,0 l/m 6,8 km/h (2 Bft) NW 315 8,5 C 16,3 C
24.03.2012 12:17 16,4 C 59 % 1027,3 hPa 0,0 l/m 6,5 km/h (2 Bft) W 270 8,4 C 16,4 C
24.03.2012 12:22 16,5 C 59 % 1027,4 hPa 0,0 l/m 4,0 km/h (1 Bft) NW 315 8,5 C 16,5 C
24.03.2012 12:27 16,7 C 58 % 1027,4 hPa 0,0 l/m 6,8 km/h (2 Bft) N-NW 337 8,4 C 16,7 C
24.03.2012 12:32 16,8 C 58 % 1027,4 hPa 0,0 l/m 2,2 km/h (1 Bft) NW 315 8,5 C 16,8 C
24.03.2012 12:37 17,1 C 57 % 1027,4 hPa 0,0 l/m 8,3 km/h (2 Bft) O-NO 67 8,5 C 17,1 C
24.03.2012 12:42 17,2 C 56 % 1027,2 hPa 0,0 l/m 0,0 km/h (0 Bft) W-NW 292 8,3 C 17,2 C
24.03.2012 12:47 17,4 C 56 % 1027,2 hPa 0,0 l/m 3,6 km/h (1 Bft) W-NW 292 8,5 C 17,4 C
24.03.2012 12:52 17,4 C 56 % 1027,3 hPa 0,0 l/m 2,9 km/h (1 Bft) W-NW 292 8,5 C 17,4 C
24.03.2012 12:57 17,6 C 57 % 1027,2 hPa 0,0 l/m 7,2 km/h (2 Bft) NW 315 9,0 C 17,6 C
24.03.2012 13:02 17,8 C 57 % 1027,3 hPa 0,5 l/m 4,7 km/h (1 Bft) W-NW 292 9,2 C 17,8 C
24.03.2012 13:07 17,8 C 56 % 1027,1 hPa 0,0 l/m 3,6 km/h (1 Bft) W-NW 292 8,9 C 17,8 C
24.03.2012 13:12 18,0 C 56 % 1027,1 hPa 0,0 l/m 3,2 km/h (1 Bft) N 360 9,1 C 18,0 C
24.03.2012 13:17 18,1 C 56 % 1027,2 hPa 0,0 l/m 10,8 km/h (2 Bft) W 270 9,2 C 18,1 C
24.03.2012 13:22 18,2 C 56 % 1027,1 hPa 0,0 l/m 2,5 km/h (1 Bft) O-NO 67 9,3 C 18,2 C
24.03.2012 13:27 18,3 C 55 % 1027,1 hPa 0,0 l/m 13,0 km/h (3 Bft) W-SW 247 9,1 C 18,3 C
24.03.2012 13:32 18,3 C 55 % 1026,9 hPa 0,0 l/m 7,2 km/h (2 Bft) W 270 9,1 C 18,3 C
24.03.2012 13:37 18,4 C 55 % 1026,9 hPa 0,0 l/m 2,5 km/h (1 Bft) W-NW 292 9,2 C 18,4 C
24.03.2012 13:42 18,5 C 55 % 1026,8 hPa 0,0 l/m 3,6 km/h (1 Bft) W-NW 292 9,3 C 18,5 C
24.03.2012 13:47 18,8 C 55 % 1026,8 hPa 0,0 l/m 9,7 km/h (2 Bft) N-NO 22 9,6 C 18,8 C
24.03.2012 13:52 18,6 C 53 % 1026,8 hPa 0,0 l/m 1,1 km/h (1 Bft) NO 45 8,8 C 18,6 C
24.03.2012 13:57 18,7 C 54 % 1026,7 hPa 0,0 l/m 5,0 km/h (1 Bft) NO 45 9,2 C 18,7 C
24.03.2012 14:02 18,6 C 53 % 1026,8 hPa 0,0 l/m 2,9 km/h (1 Bft) N-NO 22 8,8 C 18,6 C
24.03.2012 14:07 18,4 C 54 % 1026,5 hPa 0,0 l/m 4,0 km/h (1 Bft) NW 315 8,9 C 18,4 C
24.03.2012 14:12 18,4 C 54 % 1026,5 hPa 0,0 l/m 3,2 km/h (1 Bft) W-NW 292 8,9 C 18,4 C
24.03.2012 14:17 18,5 C 54 % 1026,6 hPa 0,0 l/m 4,0 km/h (1 Bft) W-SW 247 9,0 C 18,5 C
24.03.2012 14:22 18,8 C 55 % 1026,5 hPa 0,0 l/m 0,0 km/h (0 Bft) W-SW 247 9,6 C 18,8 C
24.03.2012 14:27 18,9 C 53 % 1026,5 hPa 0,0 l/m 5,0 km/h (1 Bft) N-NO 22 9,1 C 18,9 C
24.03.2012 14:32 18,9 C 53 % 1026,5 hPa 0,0 l/m 5,4 km/h (1 Bft) NW 315 9,1 C 18,9 C
24.03.2012 14:37 18,9 C 53 % 1026,5 hPa 0,0 l/m 1,8 km/h (1 Bft) N-NO 22 9,1 C 18,9 C
24.03.2012 14:42 18,9 C 52 % 1026,3 hPa 0,0 l/m 3,2 km/h (1 Bft) O-NO 67 8,8 C 18,9 C
24.03.2012 14:47 18,9 C 52 % 1026,3 hPa 0,0 l/m 0,0 km/h (0 Bft) W-NW 292 8,8 C 18,9 C
24.03.2012 14:52 18,9 C 53 % 1026,3 hPa 0,0 l/m 5,0 km/h (1 Bft) NW 315 9,1 C 18,9 C
24.03.2012 14:57 19,1 C 53 % 1026,4 hPa 0,0 l/m 5,8 km/h (2 Bft) N-NO 22 9,3 C 19,1 C
24.03.2012 15:02 19,1 C 52 % 1026,3 hPa 0,0 l/m 2,5 km/h (1 Bft) N-NW 337 9,0 C 19,1 C
24.03.2012 15:07 19,1 C 52 % 1026,3 hPa 0,0 l/m 4,0 km/h (1 Bft) N-NW 337 9,0 C 19,1 C
24.03.2012 15:12 19,1 C 51 % 1026,3 hPa 0,0 l/m 2,9 km/h (1 Bft) NO 45 8,7 C 19,1 C
24.03.2012 15:17 19,2 C 52 % 1026,2 hPa 0,0 l/m 5,8 km/h (2 Bft) NW 315 9,1 C 19,2 C
24.03.2012 15:22 19,2 C 50 % 1026,1 hPa 0,0 l/m 7,6 km/h (2 Bft) NO 45 8,5 C 19,2 C
24.03.2012 15:27 18,9 C 49 % 1026,2 hPa 0,0 l/m 6,1 km/h (2 Bft) N 360 7,9 C 18,9 C
24.03.2012 15:32 18,5 C 49 % 1026,2 hPa 0,0 l/m 7,6 km/h (2 Bft) N 360 7,6 C 18,5 C
24.03.2012 15:37 18,2 C 49 % 1026,2 hPa 0,0 l/m 8,3 km/h (2 Bft) N-NO 22 7,3 C 18,2 C
24.03.2012 15:42 17,9 C 49 % 1026,1 hPa 0,0 l/m 8,3 km/h (2 Bft) N-NO 22 7,0 C 17,9 C
24.03.2012 15:47 17,9 C 49 % 1026,2 hPa 0,0 l/m 8,6 km/h (2 Bft) N 360 7,0 C 17,9 C
24.03.2012 15:52 17,9 C 49 % 1026,0 hPa 0,0 l/m 5,0 km/h (1 Bft) NO 45 7,0 C 17,9 C
24.03.2012 15:57 17,9 C 49 % 1026,1 hPa 0,0 l/m 4,7 km/h (1 Bft) N 360 7,0 C 17,9 C
24.03.2012 16:02 18,1 C 48 % 1026,1 hPa 0,0 l/m 8,3 km/h (2 Bft) NW 315 6,9 C 18,1 C
24.03.2012 16:07 18,1 C 48 % 1025,9 hPa 0,0 l/m 4,7 km/h (1 Bft) N-NW 337 6,9 C 18,1 C
24.03.2012 16:12 18,1 C 48 % 1025,9 hPa 0,0 l/m 4,7 km/h (1 Bft) N-NO 22 6,9 C 18,1 C
24.03.2012 16:17 18,1 C 47 % 1025,8 hPa 0,0 l/m 4,3 km/h (1 Bft) N 360 6,6 C 18,1 C
24.03.2012 16:22 18,1 C 47 % 1025,9 hPa 0,0 l/m 9,4 km/h (2 Bft) NO 45 6,6 C 18,1 C
24.03.2012 16:27 18,1 C 47 % 1025,9 hPa 0,0 l/m 4,0 km/h (1 Bft) N-NW 337 6,6 C 18,1 C
24.03.2012 16:32 17,9 C 45 % 1025,9 hPa 0,0 l/m 9,4 km/h (2 Bft) N 360 5,8 C 17,9 C
24.03.2012 16:37 17,9 C 46 % 1025,9 hPa 0,0 l/m 8,3 km/h (2 Bft) N-NW 337 6,1 C 17,9 C
24.03.2012 16:42 17,8 C 45 % 1026,0 hPa 0,0 l/m 7,6 km/h (2 Bft) N 360 5,7 C 17,8 C
24.03.2012 16:47 17,8 C 44 % 1025,7 hPa 0,0 l/m 3,2 km/h (1 Bft) N-NO 22 5,4 C 17,8 C
24.03.2012 16:52 17,8 C 43 % 1025,8 hPa 0,0 l/m 6,8 km/h (2 Bft) N-NW 337 5,1 C 17,8 C
24.03.2012 16:57 17,6 C 42 % 1025,8 hPa 0,0 l/m 6,5 km/h (2 Bft) N 360 4,5 C 17,6 C
24.03.2012 17:02 17,5 C 38 % 1025,9 hPa 0,0 l/m 9,4 km/h (2 Bft) N-NW 337 3,0 C 17,5 C
24.03.2012 17:07 17,5 C 39 % 1026,0 hPa 0,0 l/m 7,6 km/h (2 Bft) W 270 3,4 C 17,5 C
24.03.2012 17:12 17,5 C 38 % 1025,6 hPa 0,0 l/m 4,7 km/h (1 Bft) N-NO 22 3,0 C 17,5 C
24.03.2012 17:17 17,4 C 39 % 1025,8 hPa 0,0 l/m 2,5 km/h (1 Bft) NW 315 3,3 C 17,4 C
24.03.2012 17:22 17,3 C 40 % 1025,8 hPa 0,0 l/m 5,8 km/h (2 Bft) NW 315 3,6 C 17,3 C
24.03.2012 17:27 17,2 C 41 % 1025,7 hPa 0,0 l/m 0,0 km/h (0 Bft) N-NO 22 3,8 C 17,2 C
24.03.2012 17:32 17,0 C 41 % 1025,8 hPa 0,0 l/m 0,0 km/h (0 Bft) N-NO 22 3,7 C 17,0 C
24.03.2012 17:37 16,9 C 42 % 1025,9 hPa 0,0 l/m 3,6 km/h (1 Bft) N-NW 337 3,9 C 16,9 C
24.03.2012 17:42 16,7 C 43 % 1025,8 hPa 0,0 l/m 2,9 km/h (1 Bft) N 360 4,1 C 16,7 C
24.03.2012 17:47 16,4 C 44 % 1026,0 hPa 0,0 l/m 10,1 km/h (2 Bft) NO 45 4,1 C 16,4 C
24.03.2012 17:52 16,3 C 47 % 1026,1 hPa 0,0 l/m 8,6 km/h (2 Bft) N-NW 337 5,0 C 16,3 C
24.03.2012 17:57 16,1 C 51 % 1026,1 hPa 0,0 l/m 8,6 km/h (2 Bft) N 360 6,0 C 16,1 C
24.03.2012 18:02 15,9 C 53 % 1026,2 hPa 0,0 l/m 6,5 km/h (2 Bft) N-NO 22 6,3 C 15,9 C
24.03.2012 18:07 15,6 C 54 % 1026,3 hPa 0,0 l/m 7,2 km/h (2 Bft) NW 315 6,3 C 15,6 C
24.03.2012 18:12 15,4 C 55 % 1026,2 hPa 0,0 l/m 5,8 km/h (2 Bft) N-NO 22 6,4 C 15,4 C
24.03.2012 18:17 15,2 C 56 % 1026,2 hPa 0,0 l/m 3,6 km/h (1 Bft) NO 45 6,5 C 15,2 C
24.03.2012 18:22 14,9 C 57 % 1026,4 hPa 0,0 l/m 5,8 km/h (2 Bft) N-NO 22 6,5 C 14,9 C
24.03.2012 18:27 14,9 C 58 % 1026,2 hPa 0,0 l/m 7,9 km/h (2 Bft) NO 45 6,7 C 14,9 C
24.03.2012 18:32 14,6 C 58 % 1026,4 hPa 0,0 l/m 10,8 km/h (2 Bft) N-NO 22 6,4 C 14,6 C
24.03.2012 18:37 14,4 C 59 % 1026,5 hPa 0,0 l/m 9,4 km/h (2 Bft) N-NO 22 6,5 C 14,4 C
24.03.2012 18:42 14,1 C 58 % 1026,7 hPa 0,0 l/m 7,9 km/h (2 Bft) NO 45 6,0 C 14,1 C
24.03.2012 18:47 13,9 C 58 % 1026,7 hPa 0,0 l/m 13,0 km/h (3 Bft) N-NO 22 5,8 C 13,9 C
24.03.2012 18:52 13,6 C 58 % 1026,8 hPa 0,0 l/m 9,4 km/h (2 Bft) N 360 5,5 C 13,6 C
24.03.2012 18:57 13,4 C 58 % 1026,8 hPa 0,0 l/m 4,7 km/h (1 Bft) N-NO 22 5,3 C 13,4 C
24.03.2012 19:02 13,2 C 58 % 1026,9 hPa 0,0 l/m 6,8 km/h (2 Bft) N-NW 337 5,1 C 13,2 C
24.03.2012 19:07 12,9 C 56 % 1026,8 hPa 0,0 l/m 11,2 km/h (2 Bft) N-NO 22 4,3 C 12,9 C
24.03.2012 19:12 12,7 C 55 % 1026,9 hPa 0,0 l/m 6,5 km/h (2 Bft) NO 45 3,9 C 12,7 C
24.03.2012 19:17 12,4 C 56 % 1027,0 hPa 0,0 l/m 3,6 km/h (1 Bft) N-NO 22 3,9 C 12,4 C
24.03.2012 19:22 12,2 C 56 % 1027,0 hPa 0,0 l/m 3,6 km/h (1 Bft) N-NW 337 3,7 C 12,2 C
24.03.2012 19:27 11,9 C 56 % 1027,0 hPa 0,0 l/m 7,2 km/h (2 Bft) N-NW 337 3,4 C 11,9 C
24.03.2012 19:32 11,8 C 57 % 1027,0 hPa 0,0 l/m 6,1 km/h (2 Bft) N-NO 22 3,6 C 11,8 C
24.03.2012 19:37 11,5 C 57 % 1027,0 hPa 0,0 l/m 5,8 km/h (2 Bft) NW 315 3,3 C 11,5 C
24.03.2012 19:42 11,3 C 57 % 1027,1 hPa 0,0 l/m 2,5 km/h (1 Bft) N-NW 337 3,1 C 11,3 C
24.03.2012 19:47 11,2 C 58 % 1027,2 hPa 0,0 l/m 2,5 km/h (1 Bft) N 360 3,2 C 11,2 C
24.03.2012 19:52 11,0 C 59 % 1027,3 hPa 0,0 l/m 0,0 km/h (0 Bft) NO 45 3,3 C 11,0 C
24.03.2012 19:57 10,8 C 59 % 1027,4 hPa 0,0 l/m 4,7 km/h (1 Bft) N-NO 22 3,1 C 10,8 C
24.03.2012 20:02 10,6 C 60 % 1027,2 hPa 0,0 l/m 4,0 km/h (1 Bft) O-NO 67 3,2 C 10,6 C
24.03.2012 20:07 10,4 C 61 % 1027,3 hPa 0,0 l/m 5,8 km/h (2 Bft) N-NW 337 3,2 C 10,4 C
24.03.2012 20:12 10,3 C 61 % 1027,3 hPa 0,0 l/m 4,0 km/h (1 Bft) NO 45 3,1 C 10,3 C
24.03.2012 20:17 10,2 C 62 % 1027,3 hPa 0,0 l/m 2,5 km/h (1 Bft) NO 45 3,3 C 10,2 C
24.03.2012 20:22 10,1 C 63 % 1027,4 hPa 0,0 l/m 3,6 km/h (1 Bft) NO 45 3,4 C 10,1 C
24.03.2012 20:27 9,9 C 63 % 1027,5 hPa 0,0 l/m 2,9 km/h (1 Bft) N 360 3,2 C 9,9 C
24.03.2012 20:32 9,8 C 64 % 1027,4 hPa 0,0 l/m 3,6 km/h (1 Bft) N-NO 22 3,3 C 9,8 C
24.03.2012 20:37 9,7 C 64 % 1027,4 hPa 0,0 l/m 2,2 km/h (1 Bft) N-NO 22 3,2 C 9,7 C
24.03.2012 20:42 9,6 C 64 % 1027,6 hPa 0,0 l/m 2,5 km/h (1 Bft) N-NO 22 3,1 C 9,6 C
24.03.2012 20:47 9,5 C 64 % 1027,5 hPa 0,0 l/m 0,0 km/h (0 Bft) N-NW 337 3,0 C 9,5 C
24.03.2012 20:52 9,4 C 65 % 1027,6 hPa 0,0 l/m 0,0 km/h (0 Bft) N-NW 337 3,2 C 9,4 C
24.03.2012 20:57 9,4 C 65 % 1027,7 hPa 0,0 l/m 2,5 km/h (1 Bft) NW 315 3,2 C 9,4 C
24.03.2012 21:02 9,3 C 65 % 1027,8 hPa 0,0 l/m 0,0 km/h (0 Bft) W-NW 292 3,1 C 9,3 C
24.03.2012 21:07 9,4 C 66 % 1027,5 hPa 0,0 l/m 0,0 km/h (0 Bft) NW 315 3,4 C 9,4 C
24.03.2012 21:12 9,3 C 66 % 1027,5 hPa 0,0 l/m 0,0 km/h (0 Bft) N-NO 22 3,3 C 9,3 C
24.03.2012 21:17 9,1 C 67 % 1027,6 hPa 0,0 l/m 1,4 km/h (1 Bft) N 360 3,3 C 9,1 C
24.03.2012 21:22 8,9 C 67 % 1027,6 hPa 0,0 l/m 1,8 km/h (1 Bft) NO 45 3,1 C 8,9 C
24.03.2012 21:27 8,8 C 68 % 1027,6 hPa 0,0 l/m 2,2 km/h (1 Bft) N-NO 22 3,2 C 8,8 C
24.03.2012 21:32 8,6 C 69 % 1027,8 hPa 0,0 l/m 2,9 km/h (1 Bft) N-NO 22 3,2 C 8,6 C
24.03.2012 21:37 8,5 C 69 % 1027,8 hPa 0,0 l/m 2,5 km/h (1 Bft) N-NO 22 3,1 C 8,5 C
24.03.2012 21:42 8,4 C 70 % 1027,9 hPa 0,0 l/m 0,0 km/h (0 Bft) NO 45 3,3 C 8,4 C
24.03.2012 21:47 8,4 C 70 % 1027,9 hPa 0,0 l/m 4,0 km/h (1 Bft) NO 45 3,3 C 8,4 C
24.03.2012 21:52 8,3 C 71 % 1028,0 hPa 0,0 l/m 2,2 km/h (1 Bft) NO 45 3,4 C 8,3 C
24.03.2012 21:57 8,2 C 71 % 1027,9 hPa 0,0 l/m 2,5 km/h (1 Bft) N-NO 22 3,3 C 8,2 C
24.03.2012 22:02 8,1 C 71 % 1028,0 hPa 0,0 l/m 2,5 km/h (1 Bft) N-NO 22 3,2 C 8,1 C
24.03.2012 22:07 8,1 C 72 % 1028,0 hPa 0,0 l/m 1,1 km/h (1 Bft) NO 45 3,4 C 8,1 C
24.03.2012 22:12 7,9 C 71 % 1028,0 hPa 0,0 l/m 0,0 km/h (0 Bft) NO 45 3,0 C 7,9 C
24.03.2012 22:17 7,9 C 71 % 1028,1 hPa 0,0 l/m 0,0 km/h (0 Bft) N-NO 22 3,0 C 7,9 C
24.03.2012 22:22 7,9 C 72 % 1028,1 hPa 0,0 l/m 2,2 km/h (1 Bft) NO 45 3,2 C 7,9 C
24.03.2012 22:27 7,8 C 72 % 1028,2 hPa 0,0 l/m 0,0 km/h (0 Bft) NO 45 3,1 C 7,8 C
24.03.2012 22:32 7,8 C 72 % 1028,2 hPa 0,0 l/m 0,0 km/h (0 Bft) N 360 3,1 C 7,8 C
24.03.2012 22:37 7,6 C 72 % 1028,4 hPa 0,0 l/m 0,0 km/h (0 Bft) N 360 2,9 C 7,6 C
24.03.2012 22:42 7,8 C 72 % 1028,3 hPa 0,0 l/m 1,4 km/h (1 Bft) N 360 3,1 C 7,8 C
24.03.2012 22:47 7,8 C 72 % 1028,1 hPa 0,0 l/m 0,0 km/h (0 Bft) N-NW 337 3,1 C 7,8 C
24.03.2012 22:52 7,6 C 73 % 1028,2 hPa 0,0 l/m 0,0 km/h (0 Bft) N-NW 337 3,1 C 7,6 C
24.03.2012 22:57 7,6 C 73 % 1028,3 hPa 0,0 l/m 1,4 km/h (1 Bft) N-NW 337 3,1 C 7,6 C
24.03.2012 23:02 7,8 C 73 % 1028,0 hPa 0,0 l/m 2,2 km/h (1 Bft) W-NW 292 3,3 C 7,8 C
24.03.2012 23:07 7,8 C 73 % 1028,3 hPa 0,0 l/m 0,0 km/h (0 Bft) W-NW 292 3,3 C 7,8 C
24.03.2012 23:12 7,8 C 73 % 1028,3 hPa 0,0 l/m 0,0 km/h (0 Bft) W-NW 292 3,3 C 7,8 C
24.03.2012 23:17 7,8 C 73 % 1028,2 hPa 0,0 l/m 0,0 km/h (0 Bft) W-NW 292 3,3 C 7,8 C
24.03.2012 23:22 7,6 C 73 % 1028,2 hPa 0,0 l/m 0,0 km/h (0 Bft) W-NW 292 3,1 C 7,6 C
24.03.2012 23:27 7,5 C 74 % 1028,3 hPa 0,0 l/m 0,0 km/h (0 Bft) W-NW 292 3,2 C 7,5 C
24.03.2012 23:32 7,4 C 74 % 1028,3 hPa 0,0 l/m 0,0 km/h (0 Bft) W-NW 292 3,1 C 7,4 C
24.03.2012 23:37 7,5 C 74 % 1028,3 hPa 0,0 l/m 0,0 km/h (0 Bft) W-NW 292 3,2 C 7,5 C
24.03.2012 23:42 7,5 C 74 % 1028,3 hPa 0,0 l/m 0,0 km/h (0 Bft) W-NW 292 3,2 C 7,5 C
24.03.2012 23:47 7,5 C 74 % 1028,3 hPa 0,0 l/m 1,8 km/h (1 Bft) W 270 3,2 C 7,5 C
24.03.2012 23:52 7,5 C 74 % 1028,4 hPa 0,0 l/m 0,0 km/h (0 Bft) W 270 3,2 C 7,5 C
24.03.2012 23:57 7,4 C 74 % 1028,2 hPa 0,0 l/m 1,4 km/h (1 Bft) W 270 3,1 C 7,4 C
_ Min-Zeit 05:52 17:02 17:12 - 00:02 - - 22:37 05:52
Minimum _ 5,6 C 38 % 1025,6 hPa - 0,0 km/h (0 Bft) - - 2,9 C 5,6 C
_ Max-Zeit 15:17 07:32 22:37 13:02 13:27 - - 13:47 15:17
Maximum _ 19,2 C 85 % 1028,4 hPa 0,5 l/m 13,0 km/h
W-SW (3 Bft)
- - 9,6 C 19,2 C
Durchschnitt _ 11,2 C 68 % 1027,5 hPa #0,5 l/m 2,8 km/h (1 Bft) N-NO - 5,3 C 11,2 C
(c) by David Heller